Terminal Aerodrome Forecast
Issued by NWS Grand Forks, ND

Home | Current Version | Previous Version | Text Only | Print | Product List | Glossary Off
Versions: 1 2 3 4 5 6 7 8 9 10 11 12 13 14

000
FTUS43 KFGF 011720
TAFGFK
TAF
KGFK 011720Z 0118/0218 16018G25KT P6SM BKN070
     FM020500 16011KT P6SM BKN080
     FM021500 17012G20KT P6SM VCSH OVC040=

USA.gov is the U.S. government's official web portal to all federal, state and local government web resources and services.